createdAt,value
2018-06-30T00:04:45.633Z,96714.31
2018-06-30T00:09:40.732Z,96700.23
2018-06-30T00:14:35.446Z,96696.28
2018-06-30T00:19:30.667Z,96692.35
2018-06-30T00:24:25.895Z,96690.45
2018-06-30T00:29:20.902Z,96689.47
2018-06-30T00:34:16.209Z,96693.70
2018-06-30T00:39:11.477Z,96685.22
2018-06-30T00:44:06.884Z,96684.98
2018-06-30T00:49:01.928Z,96689.52
2018-06-30T00:53:56.950Z,96690.13
2018-06-30T00:58:52.460Z,96686.95
2018-06-30T01:03:47.566Z,96679.26
2018-06-30T01:08:42.737Z,96679.79
2018-06-30T01:13:38.490Z,96675.32
2018-06-30T01:18:33.283Z,96672.17
2018-06-30T01:23:28.493Z,96671.95
2018-06-30T01:28:23.514Z,96674.88
2018-06-30T01:33:18.221Z,96669.58
2018-06-30T01:38:13.355Z,96677.05
2018-06-30T01:43:08.392Z,96680.75
2018-06-30T01:48:03.417Z,96675.22
2018-06-30T01:52:58.563Z,96661.94
2018-06-30T01:57:53.612Z,96660.63
2018-06-30T02:02:48.763Z,96670.19
2018-06-30T02:07:43.957Z,96663.57
2018-06-30T02:12:39.150Z,96671.01
2018-06-30T02:17:34.286Z,96674.19
2018-06-30T02:22:29.368Z,96677.91
2018-06-30T02:27:24.424Z,96670.23
2018-06-30T02:32:19.585Z,96672.63
2018-06-30T02:37:14.692Z,96673.42
2018-06-30T02:42:10.598Z,96678.98
2018-06-30T02:47:05.655Z,96682.69
2018-06-30T02:52:00.717Z,96677.13
2018-06-30T02:56:55.822Z,96680.56
2018-06-30T03:01:50.584Z,96673.67
2018-06-30T03:06:45.574Z,96672.33
2018-06-30T03:11:41.094Z,96666.27
2018-06-30T03:16:36.263Z,96676.84
2018-06-30T03:21:31.446Z,96667.06
2018-06-30T03:26:26.357Z,96669.69
2018-06-30T03:31:21.324Z,96658.05
2018-06-30T03:36:16.306Z,96664.66
2018-06-30T03:41:11.051Z,96655.13
2018-06-30T03:46:06.056Z,96662.03
2018-06-30T03:51:00.948Z,96660.42
2018-06-30T03:55:56.094Z,96651.14
2018-06-30T04:00:51.094Z,96645.98
2018-06-30T04:05:46.067Z,96654.37
2018-06-30T04:10:41.125Z,96651.55
2018-06-30T04:15:36.138Z,96649.86
2018-06-30T04:20:31.151Z,96650.78
2018-06-30T04:25:26.153Z,96650.62
2018-06-30T04:30:21.426Z,96645.74
2018-06-30T04:35:16.237Z,96643.89
2018-06-30T04:40:11.076Z,96650.17
2018-06-30T04:45:06.081Z,96653.23
2018-06-30T04:50:00.942Z,96660.38
2018-06-30T04:54:56.099Z,96657.05
2018-06-30T04:59:50.966Z,96649.05
2018-06-30T05:04:45.852Z,96650.80
2018-06-30T05:09:40.879Z,96657.17
2018-06-30T05:14:35.814Z,96663.34
2018-06-30T05:19:30.813Z,96663.94
2018-06-30T05:24:25.924Z,96667.50
2018-06-30T05:29:21.579Z,96664.61
2018-06-30T05:34:16.321Z,96658.55
2018-06-30T05:39:11.196Z,96663.97
2018-06-30T05:44:05.948Z,96658.90
2018-06-30T05:49:00.636Z,96665.25
2018-06-30T05:53:55.429Z,96665.34
2018-06-30T05:58:50.167Z,96670.94
2018-06-30T06:03:44.947Z,96672.62
2018-06-30T06:08:39.771Z,96672.70
2018-06-30T06:13:34.575Z,96672.13
2018-06-30T06:18:29.289Z,96679.33
2018-06-30T06:23:23.987Z,96681.55
2018-06-30T06:28:18.721Z,96683.13
2018-06-30T06:33:13.510Z,96685.97
2018-06-30T06:38:08.535Z,96670.08
2018-06-30T06:43:03.363Z,96679.14
2018-06-30T06:47:57.883Z,96675.84
2018-06-30T06:52:52.680Z,96669.91
2018-06-30T06:57:47.776Z,96668.71
2018-06-30T07:02:42.629Z,96663.23
2018-06-30T07:07:37.606Z,96669.55
2018-06-30T07:12:32.398Z,96668.59
2018-06-30T07:17:27.549Z,96660.70
2018-06-30T07:22:22.490Z,96669.02
2018-06-30T07:27:17.449Z,96666.12
2018-06-30T07:32:12.259Z,96667.66
2018-06-30T07:37:07.257Z,96666.84
2018-06-30T07:42:02.137Z,96665.30
2018-06-30T07:46:57.044Z,96671.08
2018-06-30T07:51:52.251Z,96659.34
2018-06-30T07:56:47.161Z,96671.36
2018-06-30T08:01:42.150Z,96667.34
2018-06-30T08:06:37.132Z,96673.23
2018-06-30T08:11:32.067Z,96667.48
2018-06-30T08:16:27.124Z,96672.63
2018-06-30T08:21:21.729Z,96667.86
2018-06-30T08:26:16.896Z,96664.01
2018-06-30T08:31:11.930Z,96667.35
2018-06-30T08:36:07.024Z,96656.91
2018-06-30T08:41:01.990Z,96657.44
2018-06-30T08:45:56.986Z,96659.04
2018-06-30T08:50:51.943Z,96652.77
2018-06-30T08:55:47.210Z,96650.98
2018-06-30T09:00:45.621Z,96654.09
2018-06-30T09:05:40.569Z,96644.73
2018-06-30T09:10:35.637Z,96651.62
2018-06-30T09:15:30.826Z,96647.91
2018-06-30T09:20:26.038Z,96644.73
2018-06-30T09:25:21.169Z,96637.95
2018-06-30T09:30:16.353Z,96638.91
2018-06-30T09:35:11.722Z,96648.16
2018-06-30T09:40:06.823Z,96647.30
2018-06-30T09:45:01.845Z,96643.30
2018-06-30T09:49:56.830Z,96650.36
2018-06-30T09:54:51.446Z,96638.77
2018-06-30T09:59:46.023Z,96641.18
2018-06-30T10:04:42.398Z,96641.66
2018-06-30T10:09:37.909Z,96636.91
2018-06-30T10:14:33.116Z,96632.56
2018-06-30T10:19:28.194Z,96629.48
2018-06-30T10:24:22.897Z,96625.47
2018-06-30T10:29:17.967Z,96619.81
2018-06-30T10:34:12.893Z,96608.86
2018-06-30T10:39:11.556Z,96602.01
2018-06-30T10:44:06.641Z,96603.45
2018-06-30T10:49:01.658Z,96597.20
2018-06-30T10:53:56.569Z,96595.82
2018-06-30T10:58:51.650Z,96583.48
2018-06-30T11:03:46.659Z,96583.08
2018-06-30T11:08:41.624Z,96588.41
2018-06-30T11:13:36.737Z,96590.75
2018-06-30T11:18:32.162Z,96580.50
2018-06-30T11:23:27.741Z,96574.27
2018-06-30T11:28:22.603Z,96573.59
2018-06-30T11:33:17.644Z,96560.81
2018-06-30T11:38:12.995Z,96550.08
2018-06-30T11:43:08.022Z,96542.70
2018-06-30T11:48:03.142Z,96547.58
2018-06-30T11:52:58.206Z,96541.84
2018-06-30T11:57:53.189Z,96535.84
2018-06-30T12:02:48.229Z,96530.81
2018-06-30T12:07:42.864Z,96526.77
2018-06-30T12:12:38.000Z,96518.77
2018-06-30T12:17:32.968Z,96513.56
2018-06-30T12:22:27.993Z,96513.45
2018-06-30T12:27:23.244Z,96508.20
2018-06-30T12:32:18.334Z,96506.21
2018-06-30T12:37:14.087Z,96500.39
2018-06-30T12:42:09.032Z,96494.79
2018-06-30T12:47:04.203Z,96495.25
2018-06-30T12:51:59.303Z,96490.64
2018-06-30T12:56:54.621Z,96487.16
2018-06-30T13:01:49.713Z,96481.23
2018-06-30T13:06:44.654Z,96479.16
2018-06-30T13:11:39.753Z,96485.63
2018-06-30T13:16:35.224Z,96475.52
2018-06-30T13:21:30.245Z,96474.52
2018-06-30T13:26:25.331Z,96477.30
2018-06-30T13:31:19.997Z,96469.55
2018-06-30T13:36:14.919Z,96470.20
2018-06-30T13:41:10.164Z,96471.56
2018-06-30T13:46:05.767Z,96467.91
2018-06-30T13:51:00.872Z,96468.16
2018-06-30T13:55:56.322Z,96473.55
2018-06-30T14:00:51.681Z,96471.60
2018-06-30T14:06:50.133Z,96465.41
2018-06-30T14:11:45.246Z,96468.46
2018-06-30T14:16:40.699Z,96454.95
2018-06-30T14:21:35.625Z,96452.61
2018-06-30T14:26:30.824Z,96434.14
2018-06-30T14:31:25.834Z,96436.22
2018-06-30T14:36:20.951Z,96430.95
2018-06-30T14:41:16.328Z,96428.72
2018-06-30T14:46:11.539Z,96432.72
2018-06-30T14:51:06.620Z,96426.75
2018-06-30T14:56:01.485Z,96417.09
2018-06-30T15:00:56.547Z,96416.92
2018-06-30T15:05:51.554Z,96417.92
2018-06-30T15:10:46.883Z,96421.45
2018-06-30T15:15:42.158Z,96421.67
2018-06-30T15:20:38.048Z,96425.83
2018-06-30T15:25:33.135Z,96415.92
2018-06-30T15:30:28.939Z,96421.81
2018-06-30T15:35:24.239Z,96419.22
2018-06-30T15:40:19.336Z,96421.28
2018-06-30T15:45:14.879Z,96423.45
2018-06-30T15:50:10.132Z,96414.14
2018-06-30T15:55:05.228Z,96424.48
2018-06-30T16:00:00.462Z,96424.28
2018-06-30T16:14:07.488Z,96416.56
2018-06-30T16:19:02.609Z,96415.38
2018-06-30T16:23:57.893Z,96415.16
2018-06-30T16:28:53.071Z,96416.92
2018-06-30T16:33:48.079Z,96420.58
2018-06-30T16:38:43.396Z,96423.77
2018-06-30T16:43:38.554Z,96424.25
2018-06-30T16:48:36.530Z,96421.34
2018-06-30T16:53:32.494Z,96423.59
2018-06-30T16:58:27.758Z,96412.27
2018-06-30T17:03:22.619Z,96418.98
2018-06-30T17:08:17.750Z,96423.73
2018-06-30T17:13:12.901Z,96412.42
2018-06-30T17:18:08.538Z,96410.60
2018-06-30T17:23:06.747Z,96416.23
2018-06-30T17:28:04.692Z,96414.19
2018-06-30T17:32:59.789Z,96413.05
2018-06-30T17:37:54.550Z,96408.34
2018-06-30T17:42:49.602Z,96405.80
2018-06-30T17:47:44.312Z,96405.63
2018-06-30T17:52:39.382Z,96417.41
2018-06-30T17:57:34.634Z,96416.30
2018-06-30T18:02:29.364Z,96423.05
2018-06-30T18:07:24.631Z,96432.86
2018-06-30T18:12:20.027Z,96433.20
2018-06-30T18:17:15.139Z,96443.16
2018-06-30T18:22:10.342Z,96442.02
2018-06-30T18:27:07.096Z,96444.39
2018-06-30T18:32:02.876Z,96454.80
2018-06-30T18:36:58.162Z,96450.05
2018-06-30T18:41:52.955Z,96456.45
2018-06-30T18:46:48.412Z,96450.42
2018-06-30T18:51:43.807Z,96461.12
2018-06-30T18:56:39.119Z,96465.23
2018-06-30T19:01:37.507Z,96457.56
2018-06-30T19:06:32.621Z,96459.08
2018-06-30T19:11:27.759Z,96468.91
2018-06-30T19:16:23.224Z,96468.61
2018-06-30T19:21:19.103Z,96470.67
2018-06-30T19:26:14.320Z,96484.25
2018-06-30T19:31:09.850Z,96485.25
2018-06-30T19:36:05.991Z,96497.08
2018-06-30T19:41:01.497Z,96496.78
2018-06-30T19:45:58.462Z,96499.93
2018-06-30T19:50:54.984Z,96509.59
2018-06-30T19:55:50.424Z,96510.86
2018-06-30T20:00:45.879Z,96521.47
2018-06-30T20:05:41.581Z,96521.80
2018-06-30T20:10:36.997Z,96522.00
2018-06-30T20:15:32.457Z,96530.23
2018-06-30T20:20:27.981Z,96534.38
2018-06-30T20:25:23.374Z,96534.17
2018-06-30T20:30:19.030Z,96530.53
2018-06-30T20:35:20.522Z,96539.17
2018-06-30T20:40:16.004Z,96538.23
2018-06-30T20:45:12.429Z,96545.36
2018-06-30T20:50:07.939Z,96556.15
2018-06-30T20:55:03.914Z,96554.68
2018-06-30T20:59:59.245Z,96549.82
2018-06-30T21:04:54.619Z,96552.66
2018-06-30T21:09:50.542Z,96552.62
2018-06-30T21:14:46.353Z,96559.03
2018-06-30T21:19:42.132Z,96556.87
2018-06-30T21:24:37.932Z,96566.24
2018-06-30T21:29:33.315Z,96569.92
2018-06-30T21:34:28.755Z,96574.34
2018-06-30T21:39:24.572Z,96573.19
2018-06-30T21:44:19.838Z,96579.89
2018-06-30T21:49:15.345Z,96575.26
2018-06-30T21:54:11.558Z,96581.72
2018-06-30T21:59:07.019Z,96579.39
2018-06-30T22:04:05.563Z,96585.23
2018-06-30T22:09:01.866Z,96579.84
2018-06-30T22:13:57.407Z,96581.88
2018-06-30T22:18:52.877Z,96583.95
2018-06-30T22:23:48.166Z,96582.95
2018-06-30T22:28:43.591Z,96583.87
2018-06-30T22:33:39.090Z,96585.09
2018-06-30T22:38:34.375Z,96575.16
2018-06-30T22:43:29.763Z,96577.53
2018-06-30T22:48:25.568Z,96577.54
2018-06-30T22:53:21.311Z,96590.67
2018-06-30T22:58:16.982Z,96577.30
2018-06-30T23:03:13.268Z,96573.53
2018-06-30T23:08:09.014Z,96579.60
2018-06-30T23:13:04.029Z,96580.56
2018-06-30T23:17:59.408Z,96580.38
2018-06-30T23:22:59.470Z,96576.21
2018-06-30T23:27:55.460Z,96580.09
2018-06-30T23:32:51.282Z,96583.36
2018-06-30T23:37:47.208Z,96583.23
2018-06-30T23:42:42.870Z,96583.31
2018-06-30T23:47:37.774Z,96592.23
2018-06-30T23:52:33.289Z,96591.55
2018-06-30T23:57:28.492Z,96593.17
